createdAt,value
2022-11-28T00:01:26.242Z,145.32
2022-11-28T00:03:53.666Z,137.77
2022-11-28T00:06:21.361Z,133.88
2022-11-28T00:08:48.963Z,119.22
2022-11-28T00:11:17.550Z,121.88
2022-11-28T00:13:45.671Z,121.43
2022-11-28T00:16:23.010Z,117.90
2022-11-28T00:18:52.198Z,115.60
2022-11-28T00:21:19.640Z,116.47
2022-11-28T00:23:48.175Z,123.88
2022-11-28T00:26:30.679Z,115.15
2022-11-28T00:28:59.836Z,114.78
2022-11-28T00:31:33.049Z,127.50
2022-11-28T00:34:01.961Z,109.32
2022-11-28T00:36:30.564Z,121.55
2022-11-28T00:38:57.734Z,113.15
2022-11-28T00:41:28.959Z,114.97
2022-11-28T00:43:56.642Z,108.05
2022-11-28T00:46:24.611Z,109.97
2022-11-28T00:48:52.257Z,116.40
2022-11-28T00:51:28.875Z,114.82
2022-11-28T00:53:58.107Z,110.10
2022-11-28T00:56:31.744Z,107.40
2022-11-28T00:58:59.397Z,114.85
2022-11-28T01:01:32.473Z,113.35
2022-11-28T01:04:02.387Z,108.53
2022-11-28T01:06:32.280Z,112.20
2022-11-28T01:09:01.313Z,112.95
2022-11-28T01:11:29.443Z,117.22
2022-11-28T01:13:58.649Z,111.65
2022-11-28T01:16:26.217Z,114.82
2022-11-28T01:18:53.631Z,150.38
2022-11-28T01:21:21.388Z,118.63
2022-11-28T01:23:48.790Z,122.40
2022-11-28T01:26:22.921Z,116.65
2022-11-28T01:28:50.174Z,126.47
2022-11-28T01:31:21.488Z,128.50
2022-11-28T01:33:49.021Z,119.15
2022-11-28T01:36:16.825Z,132.15
2022-11-28T01:38:44.183Z,125.47
2022-11-28T01:41:12.601Z,120.82
2022-11-28T01:43:57.298Z,120.13
2022-11-28T01:46:24.792Z,103.72
2022-11-28T01:48:53.904Z,125.70
2022-11-28T01:51:21.621Z,116.75
2022-11-28T01:53:49.466Z,111.75
2022-11-28T01:56:25.304Z,109.47
2022-11-28T01:58:57.553Z,110.22
2022-11-28T02:01:27.594Z,117.70
2022-11-28T02:03:55.635Z,104.05
2022-11-28T02:06:25.290Z,95.75
2022-11-28T02:08:54.048Z,103.88
2022-11-28T02:11:24.265Z,101.35
2022-11-28T02:14:12.370Z,103.15
2022-11-28T02:41:03.374Z,102.25
2022-11-28T02:43:43.996Z,97.70
2022-11-28T02:46:20.522Z,99.45
2022-11-28T02:49:09.201Z,104.50
2022-11-28T02:51:41.260Z,102.70
2022-11-28T02:54:13.205Z,100.68
2022-11-28T02:56:48.278Z,92.68
2022-11-28T02:59:34.140Z,98.05
2022-11-28T03:02:02.265Z,96.13
2022-11-28T03:05:06.896Z,103.13
2022-11-28T03:07:33.993Z,92.63
2022-11-28T03:10:09.097Z,100.72
2022-11-28T03:12:42.244Z,102.43
2022-11-28T03:15:12.074Z,101.20
2022-11-28T03:18:01.027Z,93.63
2022-11-28T03:20:40.481Z,98.75
2022-11-28T03:23:10.742Z,100.63
2022-11-28T03:26:03.568Z,97.85
2022-11-28T03:28:46.005Z,99.43
2022-11-28T03:31:21.561Z,100.15
2022-11-28T03:33:53.999Z,95.90
2022-11-28T03:36:34.470Z,93.43
2022-11-28T03:39:08.516Z,93.97
2022-11-28T03:42:22.309Z,84.70
2022-11-28T03:45:07.075Z,91.20
2022-11-28T03:47:54.376Z,82.75
2022-11-28T03:50:28.698Z,86.88
2022-11-28T03:53:20.775Z,84.18
2022-11-28T03:56:15.081Z,82.90
2022-11-28T03:59:02.380Z,83.00
2022-11-28T04:01:29.466Z,92.32
2022-11-28T04:04:19.660Z,82.45
2022-11-28T04:07:09.445Z,77.18
2022-11-28T04:09:51.179Z,82.25
2022-11-28T04:12:48.349Z,81.20
2022-11-28T04:15:29.044Z,76.70
2022-11-28T04:18:17.625Z,75.68
2022-11-28T04:21:07.309Z,66.68
2022-11-28T04:23:37.843Z,66.93
2022-11-28T04:26:15.559Z,66.72
2022-11-28T04:28:45.698Z,66.28
2022-11-28T04:31:13.520Z,61.83
2022-11-28T04:33:44.868Z,68.15
2022-11-28T04:36:15.951Z,65.80
2022-11-28T04:38:48.732Z,65.45
2022-11-28T04:41:22.800Z,66.07
2022-11-28T04:44:04.429Z,63.70
2022-11-28T04:46:38.322Z,79.68
2022-11-28T04:49:06.066Z,87.75
2022-11-28T04:51:55.692Z,91.45
2022-11-28T04:54:35.331Z,94.93
2022-11-28T04:57:13.415Z,89.68
2022-11-28T04:59:42.807Z,83.45
2022-11-28T05:02:13.131Z,86.38
2022-11-28T05:04:43.191Z,94.78
2022-11-28T05:07:10.603Z,88.93
2022-11-28T05:09:38.439Z,98.43
2022-11-28T05:12:06.836Z,100.30
2022-11-28T05:14:33.922Z,99.45
2022-11-28T05:17:01.075Z,99.88
2022-11-28T05:19:28.263Z,108.20
2022-11-28T05:21:55.327Z,105.80
2022-11-28T05:24:22.695Z,99.43
2022-11-28T05:26:50.322Z,97.97
2022-11-28T05:29:17.694Z,93.47
2022-11-28T05:31:44.988Z,86.22
2022-11-28T05:34:12.195Z,67.30
2022-11-28T05:36:39.312Z,371.35
2022-11-28T05:39:06.630Z,295.02
2022-11-28T05:41:35.614Z,193.55
2022-11-28T05:44:02.878Z,91.30
2022-11-28T05:46:30.475Z,75.38
2022-11-28T05:48:57.876Z,79.93
2022-11-28T05:51:25.698Z,81.25
2022-11-28T05:53:53.042Z,81.93
2022-11-28T05:56:24.529Z,83.50
2022-11-28T05:58:54.315Z,85.32
2022-11-28T06:01:27.829Z,110.25
2022-11-28T06:06:30.240Z,109.28
2022-11-28T06:08:57.483Z,100.85
2022-11-28T06:11:27.351Z,103.97
2022-11-28T06:13:54.562Z,103.00
2022-11-28T06:16:24.524Z,105.43
2022-11-28T06:18:56.724Z,116.03
2022-11-28T06:21:24.469Z,106.78
2022-11-28T06:23:52.211Z,93.68
2022-11-28T06:26:22.249Z,93.60
2022-11-28T06:28:49.756Z,109.03
2022-11-28T06:31:22.593Z,102.05
2022-11-28T06:33:50.539Z,113.78
2022-11-28T06:36:19.685Z,115.28
2022-11-28T06:38:47.834Z,126.18
2022-11-28T06:41:17.986Z,119.53
2022-11-28T06:43:45.251Z,126.03
2022-11-28T06:46:16.228Z,126.97
2022-11-28T06:48:48.174Z,117.55
2022-11-28T06:51:15.762Z,103.10
2022-11-28T06:53:43.410Z,116.95
2022-11-28T06:56:15.122Z,123.03
2022-11-28T06:58:43.335Z,106.50
2022-11-28T07:01:13.718Z,92.05
2022-11-28T07:03:41.786Z,106.70
2022-11-28T07:06:09.437Z,104.88
2022-11-28T07:08:37.100Z,98.90
2022-11-28T07:11:10.674Z,99.43
2022-11-28T07:13:37.911Z,80.80
2022-11-28T07:16:05.734Z,74.30
2022-11-28T07:18:33.376Z,70.97
2022-11-28T07:21:00.753Z,64.93
2022-11-28T07:23:28.079Z,62.13
2022-11-28T07:26:03.095Z,63.58
2022-11-28T07:28:31.670Z,65.65
2022-11-28T07:31:07.805Z,58.35
2022-11-28T07:33:35.319Z,57.15
2022-11-28T07:36:07.612Z,52.70
2022-11-28T07:38:35.084Z,51.70
2022-11-28T07:41:07.896Z,56.75
2022-11-28T07:43:35.410Z,53.25
2022-11-28T07:46:08.467Z,57.08
2022-11-28T07:48:36.031Z,57.97
2022-11-28T07:51:12.925Z,56.70
2022-11-28T07:53:41.186Z,56.05
2022-11-28T07:56:13.665Z,61.42
2022-11-28T07:58:42.862Z,53.40
2022-11-28T08:01:12.119Z,63.42
2022-11-28T08:03:39.483Z,64.03
2022-11-28T08:06:07.759Z,59.90
2022-11-28T08:08:35.493Z,69.00
2022-11-28T08:11:05.977Z,63.03
2022-11-28T08:13:34.035Z,68.97
2022-11-28T08:16:06.789Z,77.75
2022-11-28T08:18:35.769Z,72.75
2022-11-28T08:21:11.483Z,68.22
2022-11-28T08:23:39.851Z,72.53
2022-11-28T08:26:09.482Z,78.63
2022-11-28T08:28:37.223Z,66.75
2022-11-28T08:31:15.909Z,76.45
2022-11-28T08:33:44.113Z,76.03
2022-11-28T08:36:14.599Z,73.75
2022-11-28T08:38:47.028Z,81.18
2022-11-28T08:41:23.298Z,83.00
2022-11-28T08:43:50.790Z,84.70
2022-11-28T08:46:21.688Z,82.50
2022-11-28T08:48:50.633Z,81.65
2022-11-28T08:51:20.947Z,78.32
2022-11-28T08:53:49.469Z,87.38
2022-11-28T08:56:16.712Z,88.65
2022-11-28T08:58:43.920Z,82.47
2022-11-28T09:01:23.235Z,88.57
2022-11-28T09:03:51.570Z,88.15
2022-11-28T09:06:19.203Z,79.88
2022-11-28T09:08:46.556Z,87.18
2022-11-28T09:11:16.875Z,84.28
2022-11-28T09:13:44.765Z,98.78
2022-11-28T09:16:12.673Z,100.95
2022-11-28T09:18:40.079Z,91.53
2022-11-28T09:21:14.118Z,86.13
2022-11-28T09:23:43.618Z,91.32
2022-11-28T09:26:12.594Z,87.32
2022-11-28T09:28:39.654Z,81.50
2022-11-28T09:31:07.913Z,96.90
2022-11-28T09:33:36.112Z,87.45
2022-11-28T09:36:09.057Z,89.60
2022-11-28T09:38:36.988Z,85.10
2022-11-28T09:41:04.754Z,82.57
2022-11-28T09:43:38.172Z,87.88
2022-11-28T09:46:11.435Z,85.22
2022-11-28T09:48:44.877Z,86.10
2022-11-28T09:54:04.622Z,82.47
2022-11-28T09:56:31.988Z,76.65
2022-11-28T09:59:03.796Z,73.88
2022-11-28T10:01:39.948Z,70.57
2022-11-28T10:04:19.059Z,73.50
2022-11-28T10:06:57.280Z,76.45
2022-11-28T10:09:45.926Z,84.97
2022-11-28T10:12:31.270Z,106.00
2022-11-28T10:15:17.212Z,81.15
2022-11-28T10:17:47.611Z,66.65
2022-11-28T10:20:21.079Z,68.63
2022-11-28T10:25:55.289Z,57.63
2022-11-28T10:28:32.331Z,64.18
2022-11-28T10:31:09.522Z,53.00
2022-11-28T10:33:50.547Z,50.22
2022-11-28T10:36:44.302Z,42.03
2022-11-28T10:39:13.084Z,36.88
2022-11-28T10:42:14.295Z,37.92
2022-11-28T10:45:03.834Z,33.90
2022-11-28T10:47:48.119Z,30.20
2022-11-28T10:54:25.610Z,29.38
2022-11-28T10:57:24.159Z,31.88
2022-11-28T11:00:15.229Z,30.02
2022-11-28T11:02:50.104Z,27.58
2022-11-28T11:05:20.622Z,32.75
2022-11-28T11:07:54.327Z,26.35
2022-11-28T11:10:37.105Z,25.50
2022-11-28T11:13:26.365Z,30.45
2022-11-28T11:16:01.067Z,34.22
2022-11-28T11:18:37.372Z,31.83
2022-11-28T11:21:18.075Z,32.72
2022-11-28T11:23:46.619Z,35.25
2022-11-28T11:26:30.068Z,33.47
2022-11-28T11:28:57.364Z,33.90
2022-11-28T11:31:41.232Z,31.65
2022-11-28T11:34:17.098Z,39.35
2022-11-28T11:36:44.800Z,35.03
2022-11-28T11:39:12.529Z,90.82
2022-11-28T11:41:46.404Z,42.63
2022-11-28T11:44:20.722Z,50.15
2022-11-28T11:47:04.077Z,49.50
2022-11-28T11:49:35.959Z,43.50
2022-11-28T11:52:14.659Z,38.20
2022-11-28T11:54:56.876Z,42.72
2022-11-28T11:57:46.359Z,40.05
2022-11-28T12:00:13.564Z,38.67
2022-11-28T12:02:49.697Z,60.20
2022-11-28T12:05:18.415Z,35.03
2022-11-28T12:08:07.910Z,38.47
2022-11-28T12:10:41.276Z,35.28
2022-11-28T12:16:20.782Z,41.30
2022-11-28T12:18:53.870Z,51.72
2022-11-28T12:21:37.534Z,84.57
2022-11-28T12:26:59.446Z,44.50
2022-11-28T12:30:00.982Z,42.40
2022-11-28T12:32:57.370Z,43.58
2022-11-28T12:35:40.180Z,39.13
2022-11-28T12:38:43.517Z,41.20
2022-11-28T12:41:31.970Z,51.47
2022-11-28T12:44:22.284Z,44.00
2022-11-28T12:47:27.022Z,42.55
2022-11-28T12:50:02.621Z,40.75
2022-11-28T12:52:35.601Z,47.15
2022-11-28T12:55:17.741Z,42.90
2022-11-28T12:58:07.037Z,42.63
2022-11-28T13:00:40.511Z,35.78
2022-11-28T13:05:42.494Z,40.97
2022-11-28T13:08:34.950Z,40.70
2022-11-28T13:11:13.361Z,39.38
2022-11-28T13:13:56.499Z,48.25
2022-11-28T13:16:41.098Z,48.15
2022-11-28T13:19:30.562Z,43.00
2022-11-28T13:22:16.009Z,39.03
2022-11-28T13:25:19.568Z,40.67
2022-11-28T13:28:05.802Z,100.47
2022-11-28T13:30:44.424Z,63.05
2022-11-28T13:33:49.036Z,48.25
2022-11-28T13:39:54.778Z,48.13
2022-11-28T13:43:08.391Z,58.90
2022-11-28T13:45:42.899Z,64.35
2022-11-28T13:49:13.722Z,44.63
2022-11-28T13:51:31.417Z,38.75
2022-11-28T13:54:17.941Z,42.33
2022-11-28T13:57:11.021Z,51.17
2022-11-28T13:59:39.285Z,46.43
2022-11-28T14:02:34.447Z,48.13
2022-11-28T14:05:03.816Z,61.28
2022-11-28T14:07:33.254Z,51.97
2022-11-28T14:10:18.367Z,65.03
2022-11-28T14:13:18.071Z,53.35
2022-11-28T14:15:54.895Z,66.20
2022-11-28T14:21:36.678Z,95.90
2022-11-28T14:24:33.113Z,68.90
2022-11-28T14:27:04.117Z,59.63
2022-11-28T14:29:38.358Z,52.10
2022-11-28T14:32:28.954Z,52.92
2022-11-28T14:34:54.734Z,62.85
2022-11-28T14:37:21.882Z,54.13
2022-11-28T14:39:50.802Z,57.90
2022-11-28T14:42:43.868Z,57.67
2022-11-28T14:45:41.784Z,75.15
2022-11-28T14:48:27.590Z,82.53
2022-11-28T14:51:00.941Z,93.97
2022-11-28T14:53:42.208Z,67.88
2022-11-28T14:56:13.968Z,64.03
2022-11-28T14:58:47.748Z,60.22
2022-11-28T15:01:34.020Z,67.20
2022-11-28T15:04:39.414Z,162.98
2022-11-28T15:07:24.778Z,158.20
2022-11-28T15:10:31.130Z,144.40
2022-11-28T15:13:07.711Z,241.07
2022-11-28T15:15:35.359Z,206.75
2022-11-28T15:18:04.904Z,182.77
2022-11-28T15:20:47.656Z,96.13
2022-11-28T15:23:26.182Z,85.47
2022-11-28T15:25:57.568Z,131.10
2022-11-28T15:28:28.527Z,68.32
2022-11-28T15:30:58.307Z,111.18
2022-11-28T15:33:27.329Z,75.53
2022-11-28T15:36:20.988Z,59.65
2022-11-28T15:38:48.941Z,67.40
2022-11-28T15:41:21.945Z,70.80
2022-11-28T15:43:49.396Z,57.40
2022-11-28T15:46:40.179Z,54.92
2022-11-28T15:49:26.967Z,41.45
2022-11-28T15:51:55.879Z,47.97
2022-11-28T15:54:32.422Z,49.55
2022-11-28T15:57:00.542Z,48.47
2022-11-28T15:59:28.349Z,58.00
2022-11-28T16:02:02.320Z,55.45
2022-11-28T16:04:30.159Z,61.70
2022-11-28T16:07:01.217Z,59.67
2022-11-28T16:09:35.886Z,65.43
2022-11-28T16:12:05.340Z,60.25
2022-11-28T16:14:35.849Z,59.88
2022-11-28T16:17:15.672Z,58.10
2022-11-28T16:19:45.045Z,51.97
2022-11-28T16:22:19.771Z,55.92
2022-11-28T16:24:50.849Z,49.17
2022-11-28T16:27:39.214Z,50.35
2022-11-28T16:30:33.628Z,43.53
2022-11-28T16:33:01.232Z,170.40
2022-11-28T16:35:42.138Z,287.90
2022-11-28T16:38:23.027Z,209.65
2022-11-28T16:40:51.819Z,55.75
2022-11-28T16:43:35.269Z,53.90
2022-11-28T16:46:06.589Z,55.17
2022-11-28T16:48:46.571Z,55.88
2022-11-28T16:51:15.086Z,60.85
2022-11-28T16:53:42.206Z,63.85
2022-11-28T16:56:31.447Z,62.72
2022-11-28T16:59:13.232Z,57.85
2022-11-28T17:01:51.977Z,58.00
2022-11-28T17:04:25.740Z,55.08
2022-11-28T17:06:55.654Z,60.30
2022-11-28T17:09:23.333Z,64.22
2022-11-28T17:11:50.428Z,64.65
2022-11-28T17:14:17.896Z,64.95
2022-11-28T17:16:45.628Z,55.63
2022-11-28T17:19:13.674Z,59.42
2022-11-28T17:21:44.016Z,64.40
2022-11-28T17:24:20.092Z,65.80
2022-11-28T17:26:48.022Z,64.90
2022-11-28T17:29:16.100Z,66.32
2022-11-28T17:31:47.040Z,54.53
2022-11-28T17:34:14.253Z,66.50
2022-11-28T17:36:41.399Z,64.32
2022-11-28T17:39:08.622Z,73.00
2022-11-28T17:41:36.229Z,68.20
2022-11-28T17:44:03.815Z,61.85
2022-11-28T17:46:31.898Z,64.82
2022-11-28T17:48:59.304Z,68.45
2022-11-28T17:51:26.823Z,65.82
2022-11-28T17:53:54.277Z,64.05
2022-11-28T17:56:21.538Z,71.95
2022-11-28T17:58:48.772Z,70.32
2022-11-28T18:01:22.297Z,79.47
2022-11-28T18:03:49.538Z,67.78
2022-11-28T18:06:18.178Z,81.93
2022-11-28T18:08:47.252Z,73.82
2022-11-28T18:11:15.213Z,88.72
2022-11-28T18:13:43.937Z,236.63
2022-11-28T18:16:17.239Z,138.88
2022-11-28T18:18:45.182Z,243.82
2022-11-28T18:21:14.347Z,386.05
2022-11-28T18:23:43.601Z,377.05
2022-11-28T18:26:17.613Z,92.38
2022-11-28T18:28:45.609Z,78.70
2022-11-28T18:31:33.931Z,64.47
2022-11-28T18:34:04.299Z,73.50
2022-11-28T18:36:35.588Z,77.03
2022-11-28T18:39:06.111Z,78.05
2022-11-28T18:41:33.582Z,81.13
2022-11-28T18:44:05.980Z,79.25
2022-11-28T18:46:34.989Z,89.32
2022-11-28T18:49:03.386Z,76.72
2022-11-28T18:51:35.305Z,94.47
2022-11-28T18:54:05.046Z,83.22
2022-11-28T18:56:36.615Z,109.55
2022-11-28T18:59:06.037Z,84.40
2022-11-28T19:01:34.924Z,79.07
2022-11-28T19:04:10.186Z,82.72
2022-11-28T19:06:40.598Z,76.55
2022-11-28T19:09:11.532Z,73.63
2022-11-28T19:11:40.754Z,71.88
2022-11-28T19:14:09.166Z,83.65
2022-11-28T19:16:38.161Z,70.00
2022-11-28T19:19:06.550Z,84.40
2022-11-28T19:21:36.403Z,81.45
2022-11-28T19:24:05.241Z,77.57
2022-11-28T19:26:34.266Z,81.97
2022-11-28T19:29:02.571Z,73.20
2022-11-28T19:31:33.184Z,94.78
2022-11-28T19:34:19.853Z,90.47
2022-11-28T19:36:51.178Z,73.60
2022-11-28T19:39:24.329Z,80.00
2022-11-28T19:41:54.027Z,79.50
2022-11-28T19:44:24.122Z,81.25
2022-11-28T19:46:53.046Z,71.80
2022-11-28T19:49:23.063Z,75.43
2022-11-28T19:52:09.204Z,83.65
2022-11-28T19:54:37.255Z,80.63
2022-11-28T19:57:05.705Z,75.90
2022-11-28T19:59:33.291Z,79.53
2022-11-28T20:02:02.909Z,79.32
2022-11-28T20:04:31.368Z,78.13
2022-11-28T20:06:58.770Z,84.20
2022-11-28T20:09:33.822Z,78.55
2022-11-28T20:12:01.311Z,180.65
2022-11-28T20:14:32.521Z,281.10
2022-11-28T20:17:01.885Z,116.32
2022-11-28T20:19:30.086Z,85.93
2022-11-28T20:21:58.891Z,80.30
2022-11-28T20:24:26.263Z,78.90
2022-11-28T20:26:54.480Z,82.80
2022-11-28T20:29:26.854Z,85.38
2022-11-28T20:31:54.536Z,87.67
2022-11-28T20:34:22.061Z,71.40
2022-11-28T20:36:53.884Z,78.68
2022-11-28T20:39:21.741Z,76.70
2022-11-28T20:41:49.038Z,74.50
2022-11-28T20:44:17.788Z,78.15
2022-11-28T20:46:46.680Z,77.07
2022-11-28T20:49:15.440Z,79.85
2022-11-28T20:51:43.014Z,76.90
2022-11-28T20:54:13.120Z,77.70
2022-11-28T20:59:27.830Z,79.60
2022-11-28T21:01:55.068Z,76.60
2022-11-28T21:04:22.218Z,75.50
2022-11-28T21:06:49.787Z,76.25
2022-11-28T21:09:18.600Z,80.05
2022-11-28T21:11:57.401Z,86.15
2022-11-28T21:14:25.980Z,75.32
2022-11-28T21:16:53.194Z,75.95
2022-11-28T21:19:20.774Z,75.35
2022-11-28T21:21:47.922Z,68.72
2022-11-28T21:24:15.314Z,69.97
2022-11-28T21:26:49.444Z,74.85
2022-11-28T21:29:19.044Z,69.20
2022-11-28T21:31:46.852Z,70.13
2022-11-28T21:34:15.629Z,72.30
2022-11-28T21:36:43.043Z,69.47
2022-11-28T21:39:13.596Z,71.47
2022-11-28T21:41:41.137Z,66.05
2022-11-28T21:44:09.053Z,62.53
2022-11-28T21:46:36.331Z,62.25
2022-11-28T21:49:03.623Z,67.10
2022-11-28T21:51:30.841Z,67.68
2022-11-28T21:53:58.508Z,70.00
2022-11-28T21:56:26.506Z,62.05
2022-11-28T21:58:54.620Z,63.10
2022-11-28T22:01:24.409Z,66.55
2022-11-28T22:03:53.540Z,64.10
2022-11-28T22:06:25.393Z,72.13
2022-11-28T22:08:54.196Z,57.50
2022-11-28T22:11:22.567Z,60.55
2022-11-28T22:13:51.275Z,62.33
2022-11-28T22:16:19.955Z,55.58
2022-11-28T22:18:50.377Z,65.43
2022-11-28T22:24:06.770Z,57.95
2022-11-28T22:26:34.441Z,65.15
2022-11-28T22:29:04.302Z,56.92
2022-11-28T22:31:33.022Z,63.58
2022-11-28T22:34:00.611Z,57.42
2022-11-28T22:36:28.724Z,63.70
2022-11-28T22:38:58.232Z,53.92
2022-11-28T22:41:29.417Z,53.28
2022-11-28T22:44:01.238Z,51.97
2022-11-28T22:46:31.360Z,61.40
2022-11-28T22:49:03.419Z,56.85
2022-11-28T22:51:31.639Z,55.40
2022-11-28T22:54:00.615Z,52.13
2022-11-28T22:56:31.668Z,44.35
2022-11-28T22:58:59.645Z,52.05
2022-11-28T23:01:30.337Z,62.47
2022-11-28T23:03:58.297Z,48.70
2022-11-28T23:06:27.854Z,54.85
2022-11-28T23:08:56.369Z,51.05
2022-11-28T23:11:28.170Z,52.25
2022-11-28T23:13:56.216Z,54.03
2022-11-28T23:16:26.857Z,51.50
2022-11-28T23:18:57.433Z,50.40
2022-11-28T23:21:25.826Z,49.05
2022-11-28T23:23:53.946Z,51.78
2022-11-28T23:26:24.086Z,54.30
2022-11-28T23:28:52.575Z,58.03
2022-11-28T23:31:23.039Z,43.58
2022-11-28T23:33:50.598Z,49.40
2022-11-28T23:36:25.006Z,49.22
2022-11-28T23:38:55.177Z,52.22
2022-11-28T23:41:22.467Z,49.17
2022-11-28T23:43:49.783Z,47.90
2022-11-28T23:46:17.974Z,46.60
2022-11-28T23:48:46.122Z,50.13
2022-11-28T23:51:15.451Z,49.17
2022-11-28T23:53:43.194Z,53.67
2022-11-28T23:56:22.584Z,43.70
2022-11-28T23:58:50.946Z,41.67
